sensor_id;sensor_type;location;lat;lon;timestamp;P1;durP1;ratioP1;P2;durP2;ratioP2
34204;SDS011;20471;49.680;20.074;2023-05-02T00:01:22;18.90;;;9.20;;
34204;SDS011;20471;49.680;20.074;2023-05-02T00:03:50;14.80;;;8.60;;
34204;SDS011;20471;49.680;20.074;2023-05-02T00:06:16;19.80;;;10.70;;
34204;SDS011;20471;49.680;20.074;2023-05-02T00:08:43;17.10;;;9.30;;
34204;SDS011;20471;49.680;20.074;2023-05-02T00:11:10;17.20;;;9.50;;
34204;SDS011;20471;49.680;20.074;2023-05-02T00:13:37;20.40;;;9.70;;
34204;SDS011;20471;49.680;20.074;2023-05-02T00:16:03;33.20;;;19.90;;
34204;SDS011;20471;49.680;20.074;2023-05-02T00:18:30;45.70;;;31.00;;
34204;SDS011;20471;49.680;20.074;2023-05-02T00:20:57;30.90;;;20.00;;
34204;SDS011;20471;49.680;20.074;2023-05-02T00:23:24;33.60;;;21.10;;
34204;SDS011;20471;49.680;20.074;2023-05-02T00:25:50;43.50;;;29.80;;
34204;SDS011;20471;49.680;20.074;2023-05-02T00:28:18;33.40;;;21.00;;
34204;SDS011;20471;49.680;20.074;2023-05-02T00:30:44;19.40;;;11.60;;
34204;SDS011;20471;49.680;20.074;2023-05-02T00:33:11;16.50;;;9.80;;
34204;SDS011;20471;49.680;20.074;2023-05-02T00:35:39;12.70;;;8.10;;
34204;SDS011;20471;49.680;20.074;2023-05-02T00:38:06;15.20;;;8.10;;
34204;SDS011;20471;49.680;20.074;2023-05-02T00:40:42;14.70;;;7.70;;
34204;SDS011;20471;49.680;20.074;2023-05-02T00:43:14;12.00;;;7.40;;
34204;SDS011;20471;49.680;20.074;2023-05-02T00:45:42;11.60;;;7.10;;
34204;SDS011;20471;49.680;20.074;2023-05-02T00:48:11;12.70;;;8.20;;
34204;SDS011;20471;49.680;20.074;2023-05-02T00:50:39;13.70;;;8.20;;
34204;SDS011;20471;49.680;20.074;2023-05-02T00:53:10;20.20;;;9.70;;
34204;SDS011;20471;49.680;20.074;2023-05-02T00:55:36;19.10;;;9.70;;
34204;SDS011;20471;49.680;20.074;2023-05-02T00:58:10;13.30;;;9.70;;
34204;SDS011;20471;49.680;20.074;2023-05-02T01:03:17;16.70;;;9.30;;
34204;SDS011;20471;49.680;20.074;2023-05-02T01:08:51;19.60;;;10.70;;
34204;SDS011;20471;49.680;20.074;2023-05-02T01:14:09;28.70;;;19.30;;
34204;SDS011;20471;49.680;20.074;2023-05-02T01:16:40;28.30;;;17.00;;
34204;SDS011;20471;49.680;20.074;2023-05-02T01:19:12;18.00;;;11.20;;
34204;SDS011;20471;49.680;20.074;2023-05-02T01:21:47;17.90;;;9.80;;
34204;SDS011;20471;49.680;20.074;2023-05-02T01:24:23;19.80;;;9.20;;
34204;SDS011;20471;49.680;20.074;2023-05-02T01:29:22;17.40;;;8.20;;
34204;SDS011;20471;49.680;20.074;2023-05-02T01:31:49;14.60;;;8.30;;
34204;SDS011;20471;49.680;20.074;2023-05-02T01:34:17;17.50;;;8.00;;
34204;SDS011;20471;49.680;20.074;2023-05-02T01:36:47;14.20;;;7.50;;
34204;SDS011;20471;49.680;20.074;2023-05-02T01:39:20;12.70;;;7.50;;
34204;SDS011;20471;49.680;20.074;2023-05-02T01:41:49;13.10;;;7.80;;
34204;SDS011;20471;49.680;20.074;2023-05-02T01:44:19;11.10;;;6.00;;
34204;SDS011;20471;49.680;20.074;2023-05-02T01:46:47;10.80;;;6.10;;
34204;SDS011;20471;49.680;20.074;2023-05-02T01:49:15;9.70;;;5.10;;
34204;SDS011;20471;49.680;20.074;2023-05-02T01:51:47;8.90;;;5.30;;
34204;SDS011;20471;49.680;20.074;2023-05-02T01:54:16;10.40;;;5.50;;
34204;SDS011;20471;49.680;20.074;2023-05-02T01:56:45;8.50;;;5.30;;
34204;SDS011;20471;49.680;20.074;2023-05-02T01:59:17;10.70;;;5.10;;
34204;SDS011;20471;49.680;20.074;2023-05-02T02:01:45;9.90;;;6.10;;
34204;SDS011;20471;49.680;20.074;2023-05-02T02:04:16;10.30;;;5.80;;
34204;SDS011;20471;49.680;20.074;2023-05-02T02:06:47;9.10;;;6.20;;
34204;SDS011;20471;49.680;20.074;2023-05-02T02:09:18;9.00;;;5.60;;
34204;SDS011;20471;49.680;20.074;2023-05-02T02:11:47;15.10;;;7.10;;
34204;SDS011;20471;49.680;20.074;2023-05-02T02:14:19;11.60;;;6.30;;
34204;SDS011;20471;49.680;20.074;2023-05-02T02:16:47;12.60;;;6.40;;
34204;SDS011;20471;49.680;20.074;2023-05-02T02:19:18;10.90;;;6.40;;
34204;SDS011;20471;49.680;20.074;2023-05-02T02:21:47;10.20;;;6.40;;
34204;SDS011;20471;49.680;20.074;2023-05-02T02:24:16;9.60;;;5.80;;
34204;SDS011;20471;49.680;20.074;2023-05-02T02:26:46;13.00;;;6.40;;
34204;SDS011;20471;49.680;20.074;2023-05-02T02:29:13;10.90;;;6.60;;
34204;SDS011;20471;49.680;20.074;2023-05-02T02:31:39;14.60;;;7.50;;
34204;SDS011;20471;49.680;20.074;2023-05-02T02:34:06;10.50;;;7.00;;
34204;SDS011;20471;49.680;20.074;2023-05-02T02:36:35;13.50;;;8.40;;
34204;SDS011;20471;49.680;20.074;2023-05-02T02:44:34;12.50;;;7.90;;
34204;SDS011;20471;49.680;20.074;2023-05-02T02:47:10;17.60;;;7.40;;
34204;SDS011;20471;49.680;20.074;2023-05-02T02:52:36;13.80;;;8.50;;
34204;SDS011;20471;49.680;20.074;2023-05-02T02:55:16;12.60;;;7.80;;
34204;SDS011;20471;49.680;20.074;2023-05-02T02:58:11;12.80;;;7.60;;
34204;SDS011;20471;49.680;20.074;2023-05-02T03:00:56;11.40;;;5.50;;
34204;SDS011;20471;49.680;20.074;2023-05-02T03:03:28;15.10;;;7.20;;
34204;SDS011;20471;49.680;20.074;2023-05-02T03:05:56;13.70;;;6.60;;
34204;SDS011;20471;49.680;20.074;2023-05-02T03:08:23;9.60;;;5.80;;
34204;SDS011;20471;49.680;20.074;2023-05-02T03:10:50;9.60;;;6.30;;
34204;SDS011;20471;49.680;20.074;2023-05-02T03:13:16;11.20;;;5.60;;
34204;SDS011;20471;49.680;20.074;2023-05-02T03:18:19;9.40;;;5.10;;
34204;SDS011;20471;49.680;20.074;2023-05-02T03:20:45;12.60;;;5.50;;
34204;SDS011;20471;49.680;20.074;2023-05-02T03:23:12;10.80;;;4.70;;
34204;SDS011;20471;49.680;20.074;2023-05-02T03:25:39;8.60;;;5.30;;
34204;SDS011;20471;49.680;20.074;2023-05-02T03:28:05;9.00;;;5.20;;
34204;SDS011;20471;49.680;20.074;2023-05-02T03:30:32;11.90;;;5.70;;
34204;SDS011;20471;49.680;20.074;2023-05-02T03:32:59;12.00;;;5.50;;
34204;SDS011;20471;49.680;20.074;2023-05-02T03:35:29;9.00;;;5.10;;
34204;SDS011;20471;49.680;20.074;2023-05-02T03:37:56;11.60;;;5.30;;
34204;SDS011;20471;49.680;20.074;2023-05-02T03:40:22;8.60;;;5.00;;
34204;SDS011;20471;49.680;20.074;2023-05-02T03:42:49;8.40;;;5.50;;
34204;SDS011;20471;49.680;20.074;2023-05-02T03:45:16;8.70;;;4.60;;
34204;SDS011;20471;49.680;20.074;2023-05-02T03:47:42;10.60;;;5.80;;
34204;SDS011;20471;49.680;20.074;2023-05-02T03:50:09;11.90;;;5.50;;
34204;SDS011;20471;49.680;20.074;2023-05-02T03:52:36;10.70;;;5.60;;
34204;SDS011;20471;49.680;20.074;2023-05-02T03:55:03;11.00;;;5.60;;
34204;SDS011;20471;49.680;20.074;2023-05-02T03:57:30;15.50;;;6.20;;
34204;SDS011;20471;49.680;20.074;2023-05-02T03:59:57;9.00;;;5.50;;
34204;SDS011;20471;49.680;20.074;2023-05-02T04:02:24;11.60;;;5.40;;
34204;SDS011;20471;49.680;20.074;2023-05-02T04:04:50;10.00;;;5.90;;
34204;SDS011;20471;49.680;20.074;2023-05-02T04:07:17;14.40;;;7.30;;
34204;SDS011;20471;49.680;20.074;2023-05-02T04:09:44;15.70;;;8.10;;
34204;SDS011;20471;49.680;20.074;2023-05-02T04:12:11;16.90;;;8.40;;
34204;SDS011;20471;49.680;20.074;2023-05-02T04:14:38;15.10;;;7.10;;
34204;SDS011;20471;49.680;20.074;2023-05-02T04:17:04;18.20;;;8.80;;
34204;SDS011;20471;49.680;20.074;2023-05-02T04:19:32;18.50;;;8.60;;
34204;SDS011;20471;49.680;20.074;2023-05-02T04:22:00;19.40;;;8.60;;
34204;SDS011;20471;49.680;20.074;2023-05-02T04:24:28;16.20;;;8.20;;
34204;SDS011;20471;49.680;20.074;2023-05-02T04:26:54;18.10;;;9.00;;
34204;SDS011;20471;49.680;20.074;2023-05-02T04:29:21;16.20;;;7.50;;
34204;SDS011;20471;49.680;20.074;2023-05-02T04:31:48;17.60;;;8.70;;
34204;SDS011;20471;49.680;20.074;2023-05-02T04:34:15;12.50;;;7.90;;
34204;SDS011;20471;49.680;20.074;2023-05-02T04:36:44;13.40;;;6.40;;
34204;SDS011;20471;49.680;20.074;2023-05-02T04:39:11;15.90;;;6.60;;
34204;SDS011;20471;49.680;20.074;2023-05-02T04:41:37;15.70;;;6.40;;
34204;SDS011;20471;49.680;20.074;2023-05-02T04:44:04;12.40;;;6.00;;
34204;SDS011;20471;49.680;20.074;2023-05-02T04:46:31;12.40;;;6.30;;
34204;SDS011;20471;49.680;20.074;2023-05-02T04:48:57;12.90;;;5.90;;
34204;SDS011;20471;49.680;20.074;2023-05-02T04:51:24;17.80;;;6.40;;
34204;SDS011;20471;49.680;20.074;2023-05-02T04:53:52;9.40;;;4.90;;
34204;SDS011;20471;49.680;20.074;2023-05-02T04:56:19;10.60;;;5.10;;
34204;SDS011;20471;49.680;20.074;2023-05-02T04:58:46;12.20;;;5.40;;
34204;SDS011;20471;49.680;20.074;2023-05-02T05:01:13;11.30;;;5.70;;
34204;SDS011;20471;49.680;20.074;2023-05-02T05:03:40;11.20;;;6.00;;
34204;SDS011;20471;49.680;20.074;2023-05-02T05:06:06;11.50;;;5.50;;
34204;SDS011;20471;49.680;20.074;2023-05-02T05:08:33;18.40;;;7.00;;
34204;SDS011;20471;49.680;20.074;2023-05-02T05:11:00;9.60;;;5.60;;
34204;SDS011;20471;49.680;20.074;2023-05-02T05:13:27;14.20;;;4.70;;
34204;SDS011;20471;49.680;20.074;2023-05-02T05:15:53;13.00;;;5.70;;
34204;SDS011;20471;49.680;20.074;2023-05-02T05:18:20;11.60;;;4.60;;
34204;SDS011;20471;49.680;20.074;2023-05-02T05:20:47;8.00;;;4.30;;
34204;SDS011;20471;49.680;20.074;2023-05-02T05:23:13;10.10;;;4.80;;
34204;SDS011;20471;49.680;20.074;2023-05-02T05:25:40;8.90;;;4.10;;
34204;SDS011;20471;49.680;20.074;2023-05-02T05:28:07;8.90;;;4.50;;
34204;SDS011;20471;49.680;20.074;2023-05-02T05:30:34;8.80;;;4.70;;
34204;SDS011;20471;49.680;20.074;2023-05-02T05:33:00;8.10;;;4.10;;
34204;SDS011;20471;49.680;20.074;2023-05-02T05:35:27;7.60;;;4.50;;
34204;SDS011;20471;49.680;20.074;2023-05-02T05:37:54;10.90;;;4.90;;
34204;SDS011;20471;49.680;20.074;2023-05-02T05:40:21;12.00;;;5.00;;
34204;SDS011;20471;49.680;20.074;2023-05-02T05:42:47;11.60;;;4.70;;
34204;SDS011;20471;49.680;20.074;2023-05-02T05:45:14;13.00;;;5.60;;
34204;SDS011;20471;49.680;20.074;2023-05-02T05:47:42;14.00;;;5.90;;
34204;SDS011;20471;49.680;20.074;2023-05-02T05:50:08;13.40;;;5.50;;
34204;SDS011;20471;49.680;20.074;2023-05-02T05:52:36;11.70;;;5.30;;
34204;SDS011;20471;49.680;20.074;2023-05-02T05:55:03;9.30;;;5.10;;
34204;SDS011;20471;49.680;20.074;2023-05-02T05:57:29;11.30;;;5.00;;
34204;SDS011;20471;49.680;20.074;2023-05-02T05:59:57;12.50;;;4.50;;
34204;SDS011;20471;49.680;20.074;2023-05-02T06:02:24;12.20;;;4.70;;
34204;SDS011;20471;49.680;20.074;2023-05-02T06:04:50;7.80;;;4.50;;
34204;SDS011;20471;49.680;20.074;2023-05-02T06:07:17;7.00;;;4.70;;
34204;SDS011;20471;49.680;20.074;2023-05-02T06:09:44;10.50;;;4.50;;
34204;SDS011;20471;49.680;20.074;2023-05-02T06:12:10;10.60;;;4.40;;
34204;SDS011;20471;49.680;20.074;2023-05-02T06:14:37;10.20;;;4.60;;
34204;SDS011;20471;49.680;20.074;2023-05-02T06:17:04;11.20;;;4.90;;
34204;SDS011;20471;49.680;20.074;2023-05-02T06:19:31;11.80;;;5.60;;
34204;SDS011;20471;49.680;20.074;2023-05-02T06:21:58;10.20;;;5.80;;
34204;SDS011;20471;49.680;20.074;2023-05-02T06:24:24;17.90;;;5.90;;
34204;SDS011;20471;49.680;20.074;2023-05-02T06:26:51;10.40;;;5.20;;
34204;SDS011;20471;49.680;20.074;2023-05-02T06:29:18;11.60;;;5.10;;
34204;SDS011;20471;49.680;20.074;2023-05-02T06:31:44;10.90;;;5.50;;
34204;SDS011;20471;49.680;20.074;2023-05-02T06:34:11;8.70;;;5.40;;
34204;SDS011;20471;49.680;20.074;2023-05-02T06:36:38;12.60;;;5.40;;
34204;SDS011;20471;49.680;20.074;2023-05-02T06:39:04;9.00;;;4.80;;
34204;SDS011;20471;49.680;20.074;2023-05-02T06:41:31;10.80;;;5.60;;
34204;SDS011;20471;49.680;20.074;2023-05-02T06:43:58;9.30;;;5.50;;
34204;SDS011;20471;49.680;20.074;2023-05-02T06:46:27;9.40;;;5.60;;
34204;SDS011;20471;49.680;20.074;2023-05-02T06:48:54;13.80;;;6.50;;
34204;SDS011;20471;49.680;20.074;2023-05-02T06:51:21;12.40;;;6.30;;
34204;SDS011;20471;49.680;20.074;2023-05-02T06:53:48;12.80;;;6.60;;
34204;SDS011;20471;49.680;20.074;2023-05-02T06:56:17;12.70;;;6.30;;
34204;SDS011;20471;49.680;20.074;2023-05-02T06:58:44;10.50;;;5.80;;
34204;SDS011;20471;49.680;20.074;2023-05-02T07:01:11;14.00;;;5.80;;
34204;SDS011;20471;49.680;20.074;2023-05-02T07:03:37;15.10;;;6.20;;
34204;SDS011;20471;49.680;20.074;2023-05-02T07:06:04;11.80;;;5.90;;
34204;SDS011;20471;49.680;20.074;2023-05-02T07:08:31;14.60;;;6.20;;
34204;SDS011;20471;49.680;20.074;2023-05-02T07:10:58;13.70;;;5.50;;
34204;SDS011;20471;49.680;20.074;2023-05-02T07:13:24;18.20;;;5.70;;
34204;SDS011;20471;49.680;20.074;2023-05-02T07:15:51;12.20;;;5.30;;
34204;SDS011;20471;49.680;20.074;2023-05-02T07:18:18;11.40;;;6.00;;
34204;SDS011;20471;49.680;20.074;2023-05-02T07:20:45;10.70;;;4.50;;
34204;SDS011;20471;49.680;20.074;2023-05-02T07:23:12;4.70;;;3.60;;
34204;SDS011;20471;49.680;20.074;2023-05-02T07:25:39;7.20;;;4.10;;
34204;SDS011;20471;49.680;20.074;2023-05-02T07:28:06;10.10;;;4.20;;
34204;SDS011;20471;49.680;20.074;2023-05-02T07:30:32;8.20;;;4.10;;
34204;SDS011;20471;49.680;20.074;2023-05-02T07:32:59;9.30;;;4.30;;
34204;SDS011;20471;49.680;20.074;2023-05-02T07:35:26;6.70;;;3.80;;
34204;SDS011;20471;49.680;20.074;2023-05-02T07:37:53;10.10;;;4.30;;
34204;SDS011;20471;49.680;20.074;2023-05-02T07:40:20;7.70;;;3.50;;
34204;SDS011;20471;49.680;20.074;2023-05-02T07:42:47;9.20;;;3.60;;
34204;SDS011;20471;49.680;20.074;2023-05-02T07:45:15;4.80;;;3.00;;
34204;SDS011;20471;49.680;20.074;2023-05-02T07:47:42;13.20;;;4.80;;
34204;SDS011;20471;49.680;20.074;2023-05-02T07:50:09;8.30;;;4.40;;
34204;SDS011;20471;49.680;20.074;2023-05-02T07:52:36;9.90;;;4.40;;
34204;SDS011;20471;49.680;20.074;2023-05-02T07:55:03;8.30;;;4.60;;
34204;SDS011;20471;49.680;20.074;2023-05-02T07:57:30;9.30;;;4.70;;
34204;SDS011;20471;49.680;20.074;2023-05-02T07:59:57;7.70;;;4.80;;
34204;SDS011;20471;49.680;20.074;2023-05-02T08:02:24;10.50;;;4.40;;
34204;SDS011;20471;49.680;20.074;2023-05-02T08:04:51;7.60;;;4.60;;
34204;SDS011;20471;49.680;20.074;2023-05-02T08:07:18;5.60;;;3.80;;
34204;SDS011;20471;49.680;20.074;2023-05-02T08:09:46;4.30;;;2.90;;
34204;SDS011;20471;49.680;20.074;2023-05-02T08:12:12;5.70;;;3.80;;
34204;SDS011;20471;49.680;20.074;2023-05-02T08:14:39;5.50;;;3.50;;
34204;SDS011;20471;49.680;20.074;2023-05-02T08:17:06;4.80;;;3.20;;
34204;SDS011;20471;49.680;20.074;2023-05-02T08:19:33;5.00;;;3.30;;
34204;SDS011;20471;49.680;20.074;2023-05-02T08:21:59;8.00;;;3.70;;
34204;SDS011;20471;49.680;20.074;2023-05-02T08:24:26;5.10;;;3.80;;
34204;SDS011;20471;49.680;20.074;2023-05-02T08:26:53;10.20;;;4.00;;
34204;SDS011;20471;49.680;20.074;2023-05-02T08:29:19;5.80;;;3.00;;
34204;SDS011;20471;49.680;20.074;2023-05-02T08:31:46;4.00;;;3.00;;
34204;SDS011;20471;49.680;20.074;2023-05-02T08:34:13;7.50;;;2.70;;
34204;SDS011;20471;49.680;20.074;2023-05-02T08:36:40;3.40;;;2.70;;
34204;SDS011;20471;49.680;20.074;2023-05-02T08:39:06;4.60;;;2.70;;
34204;SDS011;20471;49.680;20.074;2023-05-02T08:41:34;5.30;;;2.70;;
34204;SDS011;20471;49.680;20.074;2023-05-02T08:44:01;4.20;;;2.70;;
34204;SDS011;20471;49.680;20.074;2023-05-02T08:46:29;4.80;;;2.60;;
34204;SDS011;20471;49.680;20.074;2023-05-02T08:48:57;5.50;;;2.90;;
34204;SDS011;20471;49.680;20.074;2023-05-02T08:51:25;4.50;;;3.20;;
34204;SDS011;20471;49.680;20.074;2023-05-02T08:53:53;3.70;;;2.70;;
34204;SDS011;20471;49.680;20.074;2023-05-02T08:56:20;4.80;;;3.30;;
34204;SDS011;20471;49.680;20.074;2023-05-02T08:58:47;5.20;;;2.60;;
34204;SDS011;20471;49.680;20.074;2023-05-02T09:01:15;4.00;;;2.80;;
34204;SDS011;20471;49.680;20.074;2023-05-02T09:03:43;3.90;;;2.90;;
34204;SDS011;20471;49.680;20.074;2023-05-02T09:08:39;7.60;;;2.70;;
34204;SDS011;20471;49.680;20.074;2023-05-02T13:12:57;4.90;;;2.30;;
34204;SDS011;20471;49.680;20.074;2023-05-02T13:15:27;4.00;;;2.50;;
34204;SDS011;20471;49.680;20.074;2023-05-02T13:17:55;4.10;;;2.60;;
34204;SDS011;20471;49.680;20.074;2023-05-02T13:20:23;2.30;;;2.10;;
34204;SDS011;20471;49.680;20.074;2023-05-02T13:22:51;2.40;;;2.10;;
34204;SDS011;20471;49.680;20.074;2023-05-02T13:25:19;2.80;;;2.50;;
34204;SDS011;20471;49.680;20.074;2023-05-02T13:27:47;3.10;;;1.90;;
34204;SDS011;20471;49.680;20.074;2023-05-02T13:30:15;2.70;;;2.20;;
34204;SDS011;20471;49.680;20.074;2023-05-02T13:32:43;3.30;;;2.70;;
34204;SDS011;20471;49.680;20.074;2023-05-02T13:35:12;2.50;;;2.30;;
34204;SDS011;20471;49.680;20.074;2023-05-02T13:37:41;5.40;;;2.50;;
34204;SDS011;20471;49.680;20.074;2023-05-02T13:40:10;2.60;;;2.40;;
34204;SDS011;20471;49.680;20.074;2023-05-02T13:42:38;2.30;;;2.00;;
34204;SDS011;20471;49.680;20.074;2023-05-02T13:45:07;2.70;;;2.50;;
34204;SDS011;20471;49.680;20.074;2023-05-02T13:47:35;2.60;;;2.40;;
34204;SDS011;20471;49.680;20.074;2023-05-02T13:50:03;2.80;;;2.60;;
34204;SDS011;20471;49.680;20.074;2023-05-02T13:52:32;4.20;;;2.40;;
34204;SDS011;20471;49.680;20.074;2023-05-02T13:55:00;2.70;;;2.40;;
34204;SDS011;20471;49.680;20.074;2023-05-02T13:57:28;3.80;;;2.20;;
34204;SDS011;20471;49.680;20.074;2023-05-02T13:59:57;2.80;;;2.50;;
34204;SDS011;20471;49.680;20.074;2023-05-02T14:02:25;3.90;;;3.40;;
34204;SDS011;20471;49.680;20.074;2023-05-02T14:04:54;4.00;;;3.60;;
34204;SDS011;20471;49.680;20.074;2023-05-02T14:07:22;5.50;;;3.20;;
34204;SDS011;20471;49.680;20.074;2023-05-02T14:09:50;5.60;;;3.40;;
34204;SDS011;20471;49.680;20.074;2023-05-02T14:12:18;5.70;;;3.40;;
34204;SDS011;20471;49.680;20.074;2023-05-02T14:14:46;5.50;;;2.90;;
34204;SDS011;20471;49.680;20.074;2023-05-02T14:17:14;3.20;;;2.70;;
34204;SDS011;20471;49.680;20.074;2023-05-02T14:19:45;3.30;;;2.80;;
34204;SDS011;20471;49.680;20.074;2023-05-02T14:22:13;3.70;;;2.80;;
34204;SDS011;20471;49.680;20.074;2023-05-02T14:24:41;5.10;;;3.30;;
34204;SDS011;20471;49.680;20.074;2023-05-02T14:27:09;4.50;;;4.10;;
34204;SDS011;20471;49.680;20.074;2023-05-02T14:29:44;4.00;;;3.40;;
34204;SDS011;20471;49.680;20.074;2023-05-02T14:32:13;5.00;;;4.20;;
34204;SDS011;20471;49.680;20.074;2023-05-02T14:34:41;5.10;;;4.60;;
34204;SDS011;20471;49.680;20.074;2023-05-02T14:37:09;6.50;;;4.90;;
34204;SDS011;20471;49.680;20.074;2023-05-02T14:39:37;6.50;;;5.20;;
34204;SDS011;20471;49.680;20.074;2023-05-02T14:42:07;6.90;;;5.90;;
34204;SDS011;20471;49.680;20.074;2023-05-02T14:44:36;5.60;;;4.60;;
34204;SDS011;20471;49.680;20.074;2023-05-02T14:47:04;6.30;;;4.80;;
34204;SDS011;20471;49.680;20.074;2023-05-02T14:49:32;7.10;;;4.30;;
34204;SDS011;20471;49.680;20.074;2023-05-02T14:52:00;9.80;;;5.10;;
34204;SDS011;20471;49.680;20.074;2023-05-02T14:54:28;6.80;;;4.70;;
34204;SDS011;20471;49.680;20.074;2023-05-02T14:56:57;5.60;;;4.70;;
34204;SDS011;20471;49.680;20.074;2023-05-02T14:59:27;6.10;;;4.00;;
34204;SDS011;20471;49.680;20.074;2023-05-02T15:01:56;11.60;;;8.80;;
34204;SDS011;20471;49.680;20.074;2023-05-02T15:04:24;12.60;;;8.40;;
34204;SDS011;20471;49.680;20.074;2023-05-02T15:06:52;12.50;;;7.90;;
34204;SDS011;20471;49.680;20.074;2023-05-02T15:09:21;9.10;;;7.10;;
34204;SDS011;20471;49.680;20.074;2023-05-02T15:11:52;12.20;;;7.80;;
34204;SDS011;20471;49.680;20.074;2023-05-02T15:14:20;10.00;;;7.10;;
34204;SDS011;20471;49.680;20.074;2023-05-02T15:16:49;7.20;;;6.20;;
34204;SDS011;20471;49.680;20.074;2023-05-02T15:19:17;6.90;;;5.40;;
34204;SDS011;20471;49.680;20.074;2023-05-02T15:21:45;6.30;;;5.50;;
34204;SDS011;20471;49.680;20.074;2023-05-02T15:24:14;7.30;;;5.60;;
34204;SDS011;20471;49.680;20.074;2023-05-02T15:26:42;7.30;;;5.50;;
34204;SDS011;20471;49.680;20.074;2023-05-02T15:29:11;8.40;;;5.30;;
34204;SDS011;20471;49.680;20.074;2023-05-02T15:31:39;9.70;;;7.70;;
34204;SDS011;20471;49.680;20.074;2023-05-02T15:34:07;11.00;;;8.40;;
34204;SDS011;20471;49.680;20.074;2023-05-02T15:36:35;17.40;;;9.60;;
34204;SDS011;20471;49.680;20.074;2023-05-02T15:39:04;11.70;;;9.00;;
34204;SDS011;20471;49.680;20.074;2023-05-02T15:41:32;18.10;;;11.10;;
34204;SDS011;20471;49.680;20.074;2023-05-02T15:44:00;22.20;;;11.80;;
34204;SDS011;20471;49.680;20.074;2023-05-02T15:46:28;19.40;;;11.30;;
34204;SDS011;20471;49.680;20.074;2023-05-02T15:48:56;20.20;;;11.20;;
34204;SDS011;20471;49.680;20.074;2023-05-02T15:51:25;16.80;;;11.10;;
34204;SDS011;20471;49.680;20.074;2023-05-02T15:53:53;21.90;;;13.50;;
34204;SDS011;20471;49.680;20.074;2023-05-02T15:56:21;18.10;;;13.10;;
34204;SDS011;20471;49.680;20.074;2023-05-02T15:58:49;16.90;;;13.20;;
34204;SDS011;20471;49.680;20.074;2023-05-02T16:01:17;17.60;;;12.60;;
34204;SDS011;20471;49.680;20.074;2023-05-02T16:03:46;19.30;;;12.30;;
34204;SDS011;20471;49.680;20.074;2023-05-02T16:06:14;12.80;;;10.30;;
34204;SDS011;20471;49.680;20.074;2023-05-02T16:08:42;10.90;;;7.20;;
34204;SDS011;20471;49.680;20.074;2023-05-02T16:11:11;8.90;;;6.30;;
34204;SDS011;20471;49.680;20.074;2023-05-02T16:13:39;8.00;;;6.00;;
34204;SDS011;20471;49.680;20.074;2023-05-02T16:16:07;10.90;;;6.90;;
34204;SDS011;20471;49.680;20.074;2023-05-02T16:18:35;7.00;;;6.30;;
34204;SDS011;20471;49.680;20.074;2023-05-02T16:21:03;6.80;;;5.90;;
34204;SDS011;20471;49.680;20.074;2023-05-02T16:23:32;8.30;;;7.40;;
34204;SDS011;20471;49.680;20.074;2023-05-02T16:26:00;10.60;;;8.30;;
34204;SDS011;20471;49.680;20.074;2023-05-02T16:28:48;12.10;;;10.60;;
34204;SDS011;20471;49.680;20.074;2023-05-02T16:31:16;15.40;;;11.60;;
34204;SDS011;20471;49.680;20.074;2023-05-02T16:33:44;10.70;;;9.30;;
34204;SDS011;20471;49.680;20.074;2023-05-02T16:36:13;10.70;;;8.20;;
34204;SDS011;20471;49.680;20.074;2023-05-02T16:38:41;8.70;;;7.30;;
34204;SDS011;20471;49.680;20.074;2023-05-02T16:41:37;12.80;;;8.40;;
34204;SDS011;20471;49.680;20.074;2023-05-02T16:44:06;11.80;;;8.40;;
34204;SDS011;20471;49.680;20.074;2023-05-02T16:46:37;9.60;;;7.70;;
34204;SDS011;20471;49.680;20.074;2023-05-02T16:49:07;9.10;;;8.20;;
34204;SDS011;20471;49.680;20.074;2023-05-02T16:51:39;11.30;;;8.30;;
34204;SDS011;20471;49.680;20.074;2023-05-02T16:54:07;10.60;;;8.80;;
34204;SDS011;20471;49.680;20.074;2023-05-02T16:56:38;10.10;;;8.60;;
34204;SDS011;20471;49.680;20.074;2023-05-02T16:59:07;10.90;;;9.30;;
34204;SDS011;20471;49.680;20.074;2023-05-02T17:01:35;10.00;;;8.90;;
34204;SDS011;20471;49.680;20.074;2023-05-02T17:04:05;10.60;;;9.40;;
34204;SDS011;20471;49.680;20.074;2023-05-02T17:06:41;12.60;;;11.20;;
34204;SDS011;20471;49.680;20.074;2023-05-02T17:09:10;17.00;;;13.00;;
34204;SDS011;20471;49.680;20.074;2023-05-02T17:11:39;17.90;;;14.10;;
34204;SDS011;20471;49.680;20.074;2023-05-02T17:14:07;19.80;;;14.60;;
34204;SDS011;20471;49.680;20.074;2023-05-02T17:16:48;18.40;;;14.80;;
34204;SDS011;20471;49.680;20.074;2023-05-02T17:19:16;21.20;;;18.50;;
34204;SDS011;20471;49.680;20.074;2023-05-02T17:21:47;22.60;;;17.70;;
34204;SDS011;20471;49.680;20.074;2023-05-02T17:24:16;22.80;;;17.50;;
34204;SDS011;20471;49.680;20.074;2023-05-02T17:26:44;21.40;;;17.60;;
34204;SDS011;20471;49.680;20.074;2023-05-02T17:29:13;24.40;;;18.30;;
34204;SDS011;20471;49.680;20.074;2023-05-02T17:31:41;25.90;;;20.00;;
34204;SDS011;20471;49.680;20.074;2023-05-02T17:34:10;24.50;;;18.80;;
34204;SDS011;20471;49.680;20.074;2023-05-02T17:36:57;24.20;;;19.10;;
34204;SDS011;20471;49.680;20.074;2023-05-02T17:39:31;24.80;;;20.10;;
34204;SDS011;20471;49.680;20.074;2023-05-02T17:42:04;52.30;;;39.30;;
34204;SDS011;20471;49.680;20.074;2023-05-02T17:44:35;34.80;;;26.50;;
34204;SDS011;20471;49.680;20.074;2023-05-02T17:47:05;32.00;;;22.40;;
34204;SDS011;20471;49.680;20.074;2023-05-02T17:49:40;28.80;;;21.60;;
34204;SDS011;20471;49.680;20.074;2023-05-02T17:52:09;32.60;;;23.70;;
34204;SDS011;20471;49.680;20.074;2023-05-02T17:54:38;38.60;;;25.00;;
34204;SDS011;20471;49.680;20.074;2023-05-02T17:57:07;44.60;;;30.00;;
34204;SDS011;20471;49.680;20.074;2023-05-02T17:59:37;38.70;;;29.80;;
34204;SDS011;20471;49.680;20.074;2023-05-02T18:02:09;42.50;;;30.10;;
34204;SDS011;20471;49.680;20.074;2023-05-02T18:04:46;40.30;;;30.40;;
34204;SDS011;20471;49.680;20.074;2023-05-02T18:07:25;35.50;;;28.70;;
34204;SDS011;20471;49.680;20.074;2023-05-02T18:09:58;41.10;;;31.10;;
34204;SDS011;20471;49.680;20.074;2023-05-02T18:12:29;46.60;;;34.60;;
34204;SDS011;20471;49.680;20.074;2023-05-02T18:14:59;45.60;;;33.30;;
34204;SDS011;20471;49.680;20.074;2023-05-02T18:17:31;41.20;;;32.20;;
34204;SDS011;20471;49.680;20.074;2023-05-02T18:19:59;36.20;;;28.80;;
34204;SDS011;20471;49.680;20.074;2023-05-02T18:22:32;38.60;;;29.10;;
34204;SDS011;20471;49.680;20.074;2023-05-02T18:25:33;36.40;;;28.40;;
34204;SDS011;20471;49.680;20.074;2023-05-02T18:28:21;34.50;;;25.50;;
34204;SDS011;20471;49.680;20.074;2023-05-02T18:30:59;30.80;;;22.60;;
34204;SDS011;20471;49.680;20.074;2023-05-02T18:33:31;33.80;;;22.80;;
34204;SDS011;20471;49.680;20.074;2023-05-02T18:36:01;32.50;;;23.80;;
34204;SDS011;20471;49.680;20.074;2023-05-02T18:38:36;37.80;;;25.30;;
34204;SDS011;20471;49.680;20.074;2023-05-02T18:43:37;36.10;;;25.30;;
34204;SDS011;20471;49.680;20.074;2023-05-02T18:46:06;37.70;;;26.80;;
34204;SDS011;20471;49.680;20.074;2023-05-02T18:48:37;35.10;;;26.60;;
34204;SDS011;20471;49.680;20.074;2023-05-02T18:51:07;35.60;;;26.40;;
34204;SDS011;20471;49.680;20.074;2023-05-02T18:53:37;37.60;;;26.20;;
34204;SDS011;20471;49.680;20.074;2023-05-02T18:56:11;38.70;;;26.40;;
34204;SDS011;20471;49.680;20.074;2023-05-02T18:58:40;46.50;;;32.40;;
34204;SDS011;20471;49.680;20.074;2023-05-02T19:01:15;56.50;;;37.80;;